createdAt,value
2023-04-29T00:01:14.388Z,7.95
2023-04-29T00:04:16.544Z,8.00
2023-04-29T00:07:18.622Z,8.00
2023-04-29T00:10:20.475Z,7.72
2023-04-29T00:13:22.468Z,7.53
2023-04-29T00:16:30.080Z,8.18
2023-04-29T00:19:31.915Z,8.25
2023-04-29T00:22:33.758Z,8.50
2023-04-29T00:25:36.155Z,7.57
2023-04-29T00:28:37.964Z,7.75
2023-04-29T00:31:39.901Z,7.97
2023-04-29T00:34:42.723Z,8.05
2023-04-29T00:37:44.691Z,6.88
2023-04-29T00:40:46.913Z,7.07
2023-04-29T00:43:48.706Z,6.85
2023-04-29T00:46:50.643Z,6.63
2023-04-29T00:49:52.907Z,6.63
2023-04-29T00:52:55.062Z,6.93
2023-04-29T00:55:57.182Z,6.63
2023-04-29T00:59:00.482Z,7.60
2023-04-29T01:02:04.244Z,6.55
2023-04-29T01:05:06.551Z,6.90
2023-04-29T01:08:27.573Z,6.93
2023-04-29T01:11:55.003Z,6.40
2023-04-29T01:15:17.211Z,7.05
2023-04-29T01:18:30.481Z,7.57
2023-04-29T01:21:32.637Z,7.82
2023-04-29T01:24:34.436Z,7.32
2023-04-29T01:28:02.854Z,7.93
2023-04-29T01:31:28.436Z,7.28
2023-04-29T01:34:50.242Z,7.38
2023-04-29T01:38:16.290Z,6.95
2023-04-29T01:41:42.566Z,6.75
2023-04-29T01:44:51.602Z,6.47
2023-04-29T01:47:58.071Z,6.40
2023-04-29T01:51:01.553Z,6.90
2023-04-29T01:54:05.282Z,6.15
2023-04-29T01:57:07.085Z,7.05
2023-04-29T02:00:27.338Z,6.30
2023-04-29T02:03:29.464Z,5.93
2023-04-29T02:06:32.341Z,5.93
2023-04-29T02:09:37.416Z,6.00
2023-04-29T02:12:44.668Z,5.87
2023-04-29T02:15:46.996Z,6.00
2023-04-29T02:18:49.177Z,6.28
2023-04-29T02:21:51.084Z,5.95
2023-04-29T02:24:53.176Z,6.30
2023-04-29T02:27:54.966Z,6.38
2023-04-29T02:30:57.090Z,5.80
2023-04-29T02:33:58.954Z,6.03
2023-04-29T02:37:00.804Z,6.32
2023-04-29T02:40:03.619Z,6.57
2023-04-29T02:43:05.908Z,6.82
2023-04-29T02:46:07.804Z,6.13
2023-04-29T02:49:12.294Z,6.07
2023-04-29T02:52:14.582Z,5.97
2023-04-29T02:55:17.477Z,4.95
2023-04-29T02:58:19.327Z,5.80
2023-04-29T03:01:22.043Z,5.78
2023-04-29T03:04:24.777Z,6.00
2023-04-29T03:07:28.020Z,5.57
2023-04-29T03:10:29.916Z,5.88
2023-04-29T03:13:31.802Z,6.22
2023-04-29T03:16:33.725Z,5.38
2023-04-29T03:19:37.337Z,5.32
2023-04-29T03:22:39.172Z,6.00
2023-04-29T03:25:41.717Z,5.72
2023-04-29T03:28:43.575Z,6.10
2023-04-29T03:31:45.783Z,6.00
2023-04-29T03:34:49.497Z,6.15
2023-04-29T03:38:00.359Z,6.40
2023-04-29T03:41:05.924Z,5.78
2023-04-29T03:44:07.944Z,5.55
2023-04-29T03:47:09.853Z,5.93
2023-04-29T03:50:12.074Z,7.18
2023-04-29T03:53:15.343Z,6.63
2023-04-29T03:56:17.544Z,6.00
2023-04-29T03:59:19.933Z,6.05
2023-04-29T04:02:23.594Z,6.20
2023-04-29T04:05:26.269Z,5.95
2023-04-29T04:08:33.707Z,5.55
2023-04-29T04:11:51.160Z,5.78
2023-04-29T04:14:54.148Z,5.72
2023-04-29T04:17:56.448Z,6.05
2023-04-29T04:20:58.361Z,6.63
2023-04-29T04:24:01.560Z,6.32
2023-04-29T04:27:05.161Z,6.85
2023-04-29T04:30:12.229Z,6.55
2023-04-29T04:33:14.025Z,6.47
2023-04-29T04:36:20.747Z,6.40
2023-04-29T04:39:22.839Z,6.65
2023-04-29T04:42:25.919Z,7.10
2023-04-29T04:45:31.610Z,6.97
2023-04-29T04:48:34.703Z,6.43
2023-04-29T04:51:36.825Z,6.13
2023-04-29T04:54:38.649Z,6.20
2023-04-29T04:57:48.247Z,6.15
2023-04-29T05:00:52.164Z,6.35
2023-04-29T05:03:55.497Z,6.30
2023-04-29T05:06:57.401Z,5.93
2023-04-29T05:10:03.692Z,6.22
2023-04-29T05:13:07.632Z,6.47
2023-04-29T05:16:09.979Z,5.43
2023-04-29T05:19:15.386Z,5.82
2023-04-29T05:22:17.467Z,5.50
2023-04-29T05:25:19.528Z,5.95
2023-04-29T05:28:22.156Z,5.80
2023-04-29T05:31:24.118Z,5.57
2023-04-29T05:34:26.485Z,6.85
2023-04-29T05:37:30.979Z,5.63
2023-04-29T05:40:58.966Z,6.68
2023-04-29T05:44:00.768Z,6.13
2023-04-29T05:47:02.647Z,6.65
2023-04-29T05:50:05.777Z,6.43
2023-04-29T05:53:07.879Z,7.00
2023-04-29T05:56:09.839Z,6.88
2023-04-29T05:59:12.355Z,5.93
2023-04-29T06:02:14.795Z,5.40
2023-04-29T06:05:20.064Z,5.78
2023-04-29T06:08:42.338Z,4.93
2023-04-29T06:11:54.979Z,5.10
2023-04-29T06:14:57.310Z,5.20
2023-04-29T06:17:59.297Z,5.80
2023-04-29T06:21:01.274Z,5.22
2023-04-29T06:24:03.249Z,6.20
2023-04-29T06:27:06.005Z,5.93
2023-04-29T06:30:08.631Z,5.78
2023-04-29T06:33:10.970Z,5.13
2023-04-29T06:36:13.009Z,4.95
2023-04-29T06:39:50.519Z,5.70
2023-04-29T06:43:02.355Z,5.95
2023-04-29T06:46:20.482Z,6.28
2023-04-29T06:49:31.137Z,5.72
2023-04-29T06:52:34.587Z,6.03
2023-04-29T06:55:36.396Z,6.03
2023-04-29T06:58:38.568Z,5.32
2023-04-29T07:01:44.459Z,5.78
2023-04-29T07:04:47.152Z,6.15
2023-04-29T07:07:50.930Z,6.13
2023-04-29T07:10:57.922Z,6.18
2023-04-29T07:13:59.638Z,7.57
2023-04-29T07:17:05.311Z,9.15
2023-04-29T07:20:09.322Z,9.77
2023-04-29T07:23:11.337Z,14.90
2023-04-29T07:26:15.750Z,14.63
2023-04-29T07:29:19.412Z,11.80
2023-04-29T07:32:21.526Z,12.05
2023-04-29T07:35:24.361Z,11.93
2023-04-29T07:38:26.375Z,12.32
2023-04-29T07:41:28.748Z,11.07
2023-04-29T07:44:30.567Z,10.88
2023-04-29T07:47:32.440Z,10.57
2023-04-29T07:50:37.564Z,8.70
2023-04-29T07:53:39.419Z,7.90
2023-04-29T07:56:41.262Z,6.32
2023-04-29T07:59:43.033Z,5.90
2023-04-29T08:02:46.557Z,5.38
2023-04-29T08:05:53.784Z,5.75
2023-04-29T08:08:56.604Z,5.60
2023-04-29T08:11:58.776Z,5.70
2023-04-29T08:15:00.577Z,5.25
2023-04-29T08:18:02.446Z,5.18
2023-04-29T08:21:04.568Z,5.45
2023-04-29T08:24:06.436Z,6.65
2023-04-29T08:27:08.582Z,5.57
2023-04-29T08:30:10.795Z,6.10
2023-04-29T08:33:13.140Z,6.20
2023-04-29T08:36:15.507Z,5.60
2023-04-29T08:39:18.346Z,5.55
2023-04-29T08:42:36.917Z,5.15
2023-04-29T08:45:40.056Z,5.72
2023-04-29T08:48:45.018Z,5.03
2023-04-29T08:51:53.082Z,4.72
2023-04-29T08:54:54.994Z,4.63
2023-04-29T08:57:57.610Z,4.28
2023-04-29T09:00:59.424Z,4.78
2023-04-29T09:04:36.749Z,4.63
2023-04-29T09:07:39.915Z,4.57
2023-04-29T09:10:43.179Z,4.47
2023-04-29T09:13:44.970Z,4.50
2023-04-29T09:16:47.402Z,4.55
2023-04-29T09:19:49.309Z,4.55
2023-04-29T09:22:52.254Z,4.25
2023-04-29T09:25:57.680Z,4.60
2023-04-29T09:29:18.505Z,3.92
2023-04-29T09:32:21.545Z,4.43
2023-04-29T09:35:28.139Z,3.92
2023-04-29T09:38:29.987Z,4.60
2023-04-29T09:41:32.333Z,5.00
2023-04-29T09:44:37.959Z,5.03
2023-04-29T09:47:39.804Z,4.78
2023-04-29T09:50:43.973Z,4.70
2023-04-29T09:53:45.932Z,4.47
2023-04-29T09:56:52.493Z,4.70
2023-04-29T09:59:54.210Z,3.92
2023-04-29T10:02:59.331Z,3.70
2023-04-29T10:06:02.821Z,4.30
2023-04-29T10:09:07.383Z,4.00
2023-04-29T10:12:09.511Z,3.97
2023-04-29T10:15:20.341Z,4.40
2023-04-29T10:18:30.542Z,4.07
2023-04-29T10:21:32.566Z,3.90
2023-04-29T10:24:37.818Z,3.53
2023-04-29T10:27:43.081Z,3.92
2023-04-29T10:30:45.726Z,3.83
2023-04-29T10:33:48.358Z,3.75
2023-04-29T10:36:50.847Z,3.90
2023-04-29T10:40:16.592Z,3.65
2023-04-29T10:43:26.920Z,3.83
2023-04-29T10:46:28.842Z,3.70
2023-04-29T10:49:36.915Z,3.17
2023-04-29T10:52:55.938Z,3.55
2023-04-29T10:56:00.166Z,3.40
2023-04-29T10:59:01.916Z,3.50
2023-04-29T11:02:03.713Z,3.25
2023-04-29T11:05:10.591Z,3.55
2023-04-29T11:08:13.832Z,3.88
2023-04-29T11:11:15.975Z,3.75
2023-04-29T11:14:24.090Z,3.45
2023-04-29T11:17:27.157Z,3.60
2023-04-29T11:20:30.217Z,3.47
2023-04-29T11:23:45.577Z,3.00
2023-04-29T11:26:48.975Z,3.25
2023-04-29T11:29:52.450Z,3.35
2023-04-29T11:32:54.510Z,3.60
2023-04-29T11:35:57.041Z,3.30
2023-04-29T11:39:01.310Z,3.20
2023-04-29T11:42:06.948Z,3.20
2023-04-29T11:45:09.276Z,3.00
2023-04-29T11:48:21.729Z,2.90
2023-04-29T11:51:23.637Z,2.85
2023-04-29T11:54:27.105Z,3.13
2023-04-29T11:57:29.126Z,3.75
2023-04-29T12:00:31.608Z,3.92
2023-04-29T12:03:34.181Z,3.63
2023-04-29T12:06:37.005Z,3.30
2023-04-29T12:09:43.839Z,3.05
2023-04-29T12:12:46.611Z,3.03
2023-04-29T12:15:50.511Z,3.80
2023-04-29T12:18:53.516Z,3.35
2023-04-29T12:21:59.348Z,3.30
2023-04-29T12:25:04.282Z,3.25
2023-04-29T12:28:08.366Z,3.03
2023-04-29T12:31:13.655Z,3.13
2023-04-29T12:34:15.467Z,2.70
2023-04-29T12:37:17.897Z,3.10
2023-04-29T12:40:21.052Z,3.35
2023-04-29T12:43:30.550Z,2.70
2023-04-29T12:46:38.398Z,3.00
2023-04-29T12:49:45.451Z,2.88
2023-04-29T12:52:47.222Z,2.97
2023-04-29T12:55:49.083Z,3.08
2023-04-29T12:58:50.876Z,3.25
2023-04-29T13:01:54.701Z,3.38
2023-04-29T13:04:56.694Z,3.25
2023-04-29T13:07:58.871Z,3.17
2023-04-29T13:11:00.773Z,2.92
2023-04-29T13:14:02.583Z,3.17
2023-04-29T13:17:04.686Z,3.28
2023-04-29T13:20:10.640Z,2.92
2023-04-29T13:23:13.050Z,2.80
2023-04-29T13:26:14.880Z,2.75
2023-04-29T13:29:16.880Z,3.13
2023-04-29T13:32:19.125Z,3.25
2023-04-29T13:35:21.106Z,2.85
2023-04-29T13:38:23.073Z,3.75
2023-04-29T13:41:26.589Z,3.47
2023-04-29T13:44:36.005Z,3.10
2023-04-29T13:48:06.663Z,2.65
2023-04-29T14:00:55.152Z,3.00
2023-04-29T14:03:47.895Z,2.45
2023-04-29T14:06:50.042Z,2.88
2023-04-29T14:09:51.958Z,3.00
2023-04-29T14:12:53.715Z,2.70
2023-04-29T14:15:56.706Z,3.00
2023-04-29T14:18:59.690Z,2.92
2023-04-29T14:22:03.040Z,2.63
2023-04-29T14:25:08.309Z,3.00
2023-04-29T14:28:11.587Z,2.80
2023-04-29T14:31:14.012Z,2.70
2023-04-29T14:34:16.003Z,2.65
2023-04-29T14:37:17.879Z,2.30
2023-04-29T14:40:20.005Z,2.72
2023-04-29T14:43:22.080Z,2.55
2023-04-29T14:46:24.993Z,2.75
2023-04-29T14:49:27.444Z,2.90
2023-04-29T14:52:30.654Z,2.65
2023-04-29T14:55:32.436Z,2.60
2023-04-29T14:58:34.348Z,2.67
2023-04-29T15:01:36.660Z,2.50
2023-04-29T15:04:39.886Z,2.42
2023-04-29T15:07:42.316Z,2.65
2023-04-29T15:10:47.945Z,2.50
2023-04-29T15:13:50.733Z,3.17
2023-04-29T15:16:52.550Z,4.72
2023-04-29T15:19:54.368Z,3.60
2023-04-29T15:22:56.235Z,3.30
2023-04-29T15:25:58.088Z,2.90
2023-04-29T15:28:59.871Z,3.47
2023-04-29T15:32:01.823Z,3.00
2023-04-29T15:35:04.825Z,3.00
2023-04-29T15:38:07.968Z,2.60
2023-04-29T15:41:10.078Z,3.13
2023-04-29T15:44:12.023Z,2.85
2023-04-29T15:47:14.916Z,3.25
2023-04-29T15:50:16.668Z,3.17
2023-04-29T15:53:18.441Z,2.65
2023-04-29T15:56:21.034Z,2.40
2023-04-29T15:59:22.886Z,2.72
2023-04-29T16:02:24.778Z,4.50
2023-04-29T16:05:26.915Z,5.35
2023-04-29T16:08:28.761Z,3.97
2023-04-29T16:11:31.962Z,5.32
2023-04-29T16:14:33.887Z,2.80
2023-04-29T16:17:35.682Z,3.28
2023-04-29T16:20:37.469Z,2.80
2023-04-29T16:23:39.248Z,2.92
2023-04-29T16:26:41.505Z,3.42
2023-04-29T16:29:43.397Z,3.08
2023-04-29T16:32:45.140Z,2.85
2023-04-29T16:35:47.034Z,3.08
2023-04-29T16:38:49.236Z,2.78
2023-04-29T16:41:51.591Z,2.30
2023-04-29T16:44:53.398Z,4.05
2023-04-29T16:47:55.322Z,4.40
2023-04-29T16:50:58.429Z,4.22
2023-04-29T16:54:00.286Z,4.05
2023-04-29T16:57:02.512Z,4.13
2023-04-29T17:00:04.829Z,3.95
2023-04-29T17:03:06.777Z,3.70
2023-04-29T17:06:09.274Z,3.42
2023-04-29T17:09:11.537Z,3.50
2023-04-29T17:12:13.612Z,3.70
2023-04-29T17:15:16.012Z,3.65
2023-04-29T17:18:19.949Z,4.25
2023-04-29T17:21:24.856Z,4.28
2023-04-29T17:24:26.684Z,4.85
2023-04-29T17:27:28.459Z,5.88
2023-04-29T17:30:30.225Z,8.00
2023-04-29T17:33:35.588Z,14.48
2023-04-29T17:36:37.461Z,16.10
2023-04-29T17:39:39.442Z,21.60
2023-04-29T17:42:41.663Z,16.33
2023-04-29T17:45:43.607Z,22.63
2023-04-29T17:48:45.436Z,27.95
2023-04-29T17:51:47.332Z,22.83
2023-04-29T17:54:49.122Z,14.02
2023-04-29T17:57:51.088Z,12.45
2023-04-29T18:00:53.074Z,11.35
2023-04-29T18:03:54.895Z,12.50
2023-04-29T18:06:56.705Z,10.35
2023-04-29T18:09:58.656Z,9.13
2023-04-29T18:13:00.690Z,11.82
2023-04-29T18:16:02.441Z,11.00
2023-04-29T18:19:04.685Z,13.27
2023-04-29T18:22:07.480Z,21.48
2023-04-29T18:25:11.159Z,25.73
2023-04-29T18:28:23.474Z,27.75
2023-04-29T18:31:26.604Z,29.27
2023-04-29T18:34:28.466Z,25.65
2023-04-29T18:37:30.985Z,30.52
2023-04-29T18:40:32.794Z,26.75
2023-04-29T18:43:34.935Z,41.90
2023-04-29T18:46:36.826Z,53.00
2023-04-29T18:49:38.761Z,47.75
2023-04-29T18:52:41.010Z,25.95
2023-04-29T18:55:42.805Z,20.10
2023-04-29T18:58:44.618Z,14.23
2023-04-29T19:01:47.680Z,13.80
2023-04-29T19:04:50.389Z,13.55
2023-04-29T19:07:52.212Z,14.43
2023-04-29T19:10:54.137Z,15.57
2023-04-29T19:13:56.179Z,15.82
2023-04-29T19:16:57.969Z,15.93
2023-04-29T19:20:00.168Z,15.77
2023-04-29T19:23:02.750Z,14.57
2023-04-29T19:26:04.610Z,13.45
2023-04-29T19:29:07.294Z,10.48
2023-04-29T19:32:09.147Z,9.32
2023-04-29T19:35:12.304Z,8.85
2023-04-29T19:38:14.762Z,7.80
2023-04-29T19:41:16.803Z,7.68
2023-04-29T19:44:18.627Z,7.50
2023-04-29T19:47:20.401Z,6.60
2023-04-29T19:50:22.723Z,5.80
2023-04-29T19:53:24.758Z,6.80
2023-04-29T19:56:27.039Z,7.53
2023-04-29T19:59:30.263Z,6.78
2023-04-29T20:02:33.028Z,6.50
2023-04-29T20:05:35.158Z,7.32
2023-04-29T20:08:37.368Z,5.80
2023-04-29T20:11:39.228Z,6.20
2023-04-29T20:14:41.311Z,6.30
2023-04-29T20:17:43.148Z,6.32
2023-04-29T20:20:45.498Z,6.47
2023-04-29T20:23:47.210Z,6.18
2023-04-29T20:26:48.988Z,7.03
2023-04-29T20:29:51.131Z,6.22
2023-04-29T20:32:53.119Z,6.25
2023-04-29T20:35:54.977Z,5.80
2023-04-29T20:38:57.324Z,5.93
2023-04-29T20:41:59.187Z,6.40
2023-04-29T20:45:31.418Z,5.97
2023-04-29T20:48:36.668Z,6.03
2023-04-29T20:51:39.481Z,6.07
2023-04-29T20:54:41.736Z,5.78
2023-04-29T20:57:43.614Z,5.68
2023-04-29T21:00:45.920Z,6.00
2023-04-29T21:03:47.646Z,5.35
2023-04-29T21:06:52.569Z,5.70
2023-04-29T21:09:54.759Z,5.75
2023-04-29T21:12:56.716Z,6.45
2023-04-29T21:15:58.607Z,5.80
2023-04-29T21:19:00.473Z,5.57
2023-04-29T21:22:02.299Z,5.28
2023-04-29T21:25:05.524Z,6.03
2023-04-29T21:28:07.341Z,5.30
2023-04-29T21:31:15.280Z,5.70
2023-04-29T21:37:18.825Z,4.68
2023-04-29T21:40:20.683Z,4.93
2023-04-29T21:43:22.657Z,5.82
2023-04-29T21:46:28.286Z,5.45
2023-04-29T21:49:30.817Z,5.53
2023-04-29T21:52:35.202Z,4.75
2023-04-29T21:55:38.102Z,5.32
2023-04-29T21:58:41.006Z,5.22
2023-04-29T22:01:44.572Z,5.70
2023-04-29T22:04:46.508Z,6.53
2023-04-29T22:07:48.321Z,6.93
2023-04-29T22:10:50.497Z,6.43
2023-04-29T22:13:52.407Z,6.90
2023-04-29T22:16:54.227Z,6.25
2023-04-29T22:19:56.238Z,7.53
2023-04-29T22:22:58.190Z,6.68
2023-04-29T22:26:00.001Z,6.68
2023-04-29T22:29:01.849Z,7.28
2023-04-29T22:32:04.002Z,7.00
2023-04-29T22:35:06.419Z,7.20
2023-04-29T22:38:08.265Z,6.40
2023-04-29T22:41:11.712Z,7.10
2023-04-29T22:44:13.887Z,6.65
2023-04-29T22:47:16.089Z,6.22
2023-04-29T22:50:17.860Z,7.68
2023-04-29T22:53:21.268Z,7.32
2023-04-29T22:56:24.586Z,6.88
2023-04-29T22:59:26.452Z,6.50
2023-04-29T23:02:29.709Z,7.00
2023-04-29T23:05:32.463Z,6.85
2023-04-29T23:08:34.285Z,6.43
2023-04-29T23:11:37.422Z,5.78
2023-04-29T23:14:39.229Z,5.63
2023-04-29T23:17:41.203Z,6.70
2023-04-29T23:20:47.259Z,5.65
2023-04-29T23:23:49.144Z,6.25
2023-04-29T23:26:51.131Z,5.63
2023-04-29T23:29:53.126Z,5.80
2023-04-29T23:32:55.200Z,5.45
2023-04-29T23:35:57.270Z,5.60
2023-04-29T23:38:59.336Z,5.80
2023-04-29T23:42:01.149Z,6.00
2023-04-29T23:45:03.071Z,5.75
2023-04-29T23:48:04.953Z,6.13
2023-04-29T23:51:06.928Z,5.78
2023-04-29T23:54:08.849Z,5.82
2023-04-29T23:57:10.848Z,6.18
